Time;durP1;ratioP1;P1;durP2;ratioP2;P2;SDS_P1;SDS_P2;PMS_P1;PMS_P2;Temp;Humidity;BMP_temperature;BMP_pressure;BME280_temperature;BME280_humidity;BME280_pressure;Samples;Min_cycle;Max_cycle;Signal;HPM_P1;HPM_P2
2023/09/13 00:01:13;;;;;;;17.50;15.70;;;;;;;;;;5056663;28;20180;-77
2023/09/13 00:03:39;;;;;;;18.10;15.83;;;;;;;;;;5056656;28;20175;-75
2023/09/13 00:06:05;;;;;;;19.00;16.03;;;;;;;;;;5040090;28;20179;-75
2023/09/13 00:08:31;;;;;;;17.13;15.30;;;;;;;;;;5041682;28;20198;-75
2023/09/13 00:11:04;;;;;;;16.63;14.73;;;;;;;;;;5020298;28;20184;-79
2023/09/13 00:13:30;;;;;;;16.60;15.00;;;;;;;;;;5036817;28;20186;-78
2023/09/13 00:15:56;;;;;;;16.17;14.47;;;;;;;;;;5020178;28;20251;-79
2023/09/13 00:18:22;;;;;;;21.57;15.07;;;;;;;;;;5054102;28;20207;-75
2023/09/13 00:20:52;;;;;;;14.70;13.30;;;;;;;;;;5020054;28;20180;-75
2023/09/13 00:23:18;;;;;;;15.07;13.67;;;;;;;;;;5054134;28;20168;-75
2023/09/13 00:25:44;;;;;;;15.07;13.60;;;;;;;;;;5019941;28;20207;-75
2023/09/13 00:28:10;;;;;;;14.83;13.33;;;;;;;;;;5036494;28;20184;-76
2023/09/13 00:30:36;;;;;;;14.27;13.03;;;;;;;;;;5019981;28;20210;-76
2023/09/13 00:33:02;;;;;;;13.83;12.50;;;;;;;;;;5036545;28;20243;-76
2023/09/13 00:35:29;;;;;;;13.23;11.93;;;;;;;;;;5020311;28;20242;-76
2023/09/13 00:37:55;;;;;;;14.43;12.90;;;;;;;;;;5036638;28;20284;-76
2023/09/13 00:40:21;;;;;;;14.00;12.60;;;;;;;;;;5019827;28;20287;-76
2023/09/13 00:42:47;;;;;;;14.23;12.93;;;;;;;;;;5036578;28;20179;-76
2023/09/13 00:45:13;;;;;;;14.33;12.80;;;;;;;;;;5038619;28;20258;-76
2023/09/13 00:47:42;;;;;;;14.80;12.80;;;;;;;;;;5024362;28;20188;-76
2023/09/13 00:50:09;;;;;;;16.87;13.47;;;;;;;;;;5057563;28;20180;-76
2023/09/13 00:52:36;;;;;;;15.73;14.10;;;;;;;;;;5040305;28;20187;-76
2023/09/13 00:55:04;;;;;;;15.30;13.70;;;;;;;;;;5023437;28;20258;-76
2023/09/13 00:57:30;;;;;;;16.90;13.63;;;;;;;;;;5057746;28;20255;-76
2023/09/13 00:59:56;;;;;;;15.37;13.87;;;;;;;;;;5058623;28;20184;-75
2023/09/13 01:02:22;;;;;;;15.93;14.33;;;;;;;;;;5057536;28;20176;-75
2023/09/13 01:04:48;;;;;;;16.63;14.53;;;;;;;;;;5023883;28;20184;-75
2023/09/13 01:07:15;;;;;;;19.13;15.60;;;;;;;;;;5043788;28;20200;-75
2023/09/13 01:09:41;;;;;;;19.10;16.47;;;;;;;;;;5036539;28;20204;-75
2023/09/13 01:12:07;;;;;;;17.83;16.03;;;;;;;;;;5036668;28;20223;-75
2023/09/13 01:14:34;;;;;;;17.27;15.57;;;;;;;;;;5036300;28;20271;-74
2023/09/13 01:17:14;;;;;;;17.87;15.97;;;;;;;;;;5036319;28;20189;-76
2023/09/13 01:19:52;;;;;;;17.17;15.67;;;;;;;;;;5037398;28;20231;-76
2023/09/13 01:22:42;;;;;;;18.20;15.60;;;;;;;;;;5019669;28;20211;-76
2023/09/13 01:25:14;;;;;;;24.57;16.63;;;;;;;;;;5037162;28;20183;-76
2023/09/13 01:27:49;;;;;;;20.03;16.77;;;;;;;;;;5037369;28;20268;-76
2023/09/13 01:30:17;;;;;;;17.77;15.80;;;;;;;;;;5037243;28;20180;-76
2023/09/13 01:32:52;;;;;;;16.77;15.03;;;;;;;;;;5037151;28;20187;-74
2023/09/13 01:35:18;;;;;;;17.63;15.83;;;;;;;;;;5019262;28;20180;-75
2023/09/13 01:37:44;;;;;;;18.90;16.90;;;;;;;;;;5019201;28;20243;-75
2023/09/13 01:40:10;;;;;;;18.70;16.70;;;;;;;;;;5020050;28;20204;-75
2023/09/13 01:42:41;;;;;;;22.37;16.97;;;;;;;;;;5035930;28;20172;-74
2023/09/13 01:45:11;;;;;;;18.37;16.47;;;;;;;;;;5036673;28;20200;-75
2023/09/13 01:47:38;;;;;;;21.77;17.40;;;;;;;;;;5036793;28;20226;-75
2023/09/13 01:50:05;;;;;;;18.87;16.90;;;;;;;;;;5031264;28;20252;-78
2023/09/13 01:52:31;;;;;;;19.37;17.33;;;;;;;;;;5022670;28;20187;-78
2023/09/13 01:54:57;;;;;;;20.67;18.57;;;;;;;;;;5022309;28;20266;-77
2023/09/13 01:57:23;;;;;;;22.50;20.10;;;;;;;;;;5040910;28;20215;-77
2023/09/13 01:59:49;;;;;;;22.50;20.10;;;;;;;;;;5058715;28;20177;-78
2023/09/13 02:02:15;;;;;;;21.97;19.47;;;;;;;;;;5076416;28;20171;-78
2023/09/13 02:04:41;;;;;;;22.93;20.50;;;;;;;;;;5076490;28;20225;-78
2023/09/13 02:07:07;;;;;;;22.20;19.87;;;;;;;;;;5058637;28;20247;-76
2023/09/13 02:12:05;;;;;;;22.53;20.13;;;;;;;;;;5071224;28;20293;-78
2023/09/13 02:14:31;;;;;;;23.07;20.43;;;;;;;;;;5041437;28;20191;-78
2023/09/13 02:17:00;;;;;;;22.67;20.27;;;;;;;;;;5041358;28;20171;-78
2023/09/13 02:19:27;;;;;;;27.90;21.97;;;;;;;;;;5041585;28;20183;-78
2023/09/13 02:21:53;;;;;;;25.47;21.50;;;;;;;;;;5041701;28;20175;-78
2023/09/13 02:24:19;;;;;;;26.40;22.20;;;;;;;;;;5041720;28;20191;-76
2023/09/13 02:26:45;;;;;;;27.40;24.43;;;;;;;;;;5041413;28;20179;-76
2023/09/13 02:29:11;;;;;;;28.83;23.40;;;;;;;;;;5058117;28;20184;-76
2023/09/13 02:31:38;;;;;;;26.33;22.93;;;;;;;;;;5041611;28;20186;-76
2023/09/13 02:34:05;;;;;;;28.33;22.60;;;;;;;;;;5058293;28;20176;-76
2023/09/13 02:36:31;;;;;;;26.90;23.47;;;;;;;;;;5062063;28;20175;-76
2023/09/13 02:38:58;;;;;;;27.97;23.23;;;;;;;;;;5051136;28;20202;-76
2023/09/13 02:41:24;;;;;;;26.70;23.40;;;;;;;;;;5064812;28;20166;-78
2023/09/13 02:43:50;;;;;;;27.87;23.20;;;;;;;;;;5051506;28;20181;-78
2023/09/13 02:46:16;;;;;;;28.37;23.60;;;;;;;;;;5051254;28;20201;-78
2023/09/13 02:48:42;;;;;;;26.43;22.87;;;;;;;;;;5051690;28;20274;-77
2023/09/13 02:51:13;;;;;;;29.47;24.60;;;;;;;;;;5051514;28;20189;-76
2023/09/13 02:53:39;;;;;;;26.93;23.57;;;;;;;;;;5059719;28;20178;-76
2023/09/13 02:56:08;;;;;;;29.03;23.90;;;;;;;;;;5075640;28;20175;-75
2023/09/13 02:58:34;;;;;;;27.33;23.57;;;;;;;;;;5091079;28;20298;-75
2023/09/13 03:01:03;;;;;;;28.67;24.27;;;;;;;;;;5076055;28;20210;-76
2023/09/13 03:03:30;;;;;;;27.37;23.27;;;;;;;;;;5039125;28;20284;-76
2023/09/13 03:06:05;;;;;;;25.53;22.83;;;;;;;;;;5040679;28;20184;-76
2023/09/13 03:08:31;;;;;;;31.77;25.33;;;;;;;;;;5069759;28;20190;-76
2023/09/13 03:10:57;;;;;;;27.27;24.37;;;;;;;;;;5040521;28;20290;-76
2023/09/13 03:13:23;;;;;;;27.20;23.70;;;;;;;;;;5040646;28;20236;-78
2023/09/13 03:15:49;;;;;;;29.50;24.63;;;;;;;;;;5053522;28;20245;-78
2023/09/13 03:18:15;;;;;;;27.63;24.67;;;;;;;;;;5036987;28;20216;-76
2023/09/13 03:20:41;;;;;;;30.97;24.80;;;;;;;;;;5036910;28;20187;-77
2023/09/13 03:23:07;;;;;;;28.17;24.93;;;;;;;;;;5054608;28;20176;-77
2023/09/13 03:25:33;;;;;;;28.30;24.73;;;;;;;;;;5053732;28;20231;-76
2023/09/13 03:27:59;;;;;;;31.57;25.57;;;;;;;;;;5053466;28;20195;-76
2023/09/13 03:30:25;;;;;;;27.80;24.73;;;;;;;;;;5053278;28;20179;-75
2023/09/13 03:32:51;;;;;;;32.90;24.80;;;;;;;;;;5040016;28;20195;-75
2023/09/13 03:35:17;;;;;;;30.13;25.90;;;;;;;;;;5040230;28;20179;-75
2023/09/13 03:37:43;;;;;;;28.33;25.30;;;;;;;;;;5074022;28;20203;-75
2023/09/13 03:40:09;;;;;;;30.57;25.77;;;;;;;;;;5039809;28;20179;-76
2023/09/13 03:42:35;;;;;;;29.40;24.23;;;;;;;;;;5039713;28;20179;-75
2023/09/13 03:45:02;;;;;;;34.73;25.23;;;;;;;;;;5039692;28;20179;-75
2023/09/13 03:47:28;;;;;;;31.43;26.27;;;;;;;;;;5056333;28;20187;-77
2023/09/13 03:49:54;;;;;;;33.43;24.67;;;;;;;;;;5036529;28;20241;-78
2023/09/13 03:52:20;;;;;;;29.13;23.93;;;;;;;;;;5036607;28;20179;-78
2023/09/13 03:54:46;;;;;;;28.37;25.30;;;;;;;;;;5036226;28;20195;-78
2023/09/13 03:57:12;;;;;;;30.20;25.23;;;;;;;;;;5036052;28;20208;-78
2023/09/13 03:59:38;;;;;;;31.80;25.50;;;;;;;;;;5053201;28;20180;-78
2023/09/13 04:02:04;;;;;;;31.90;28.03;;;;;;;;;;5036044;28;20271;-78
2023/09/13 04:04:31;;;;;;;31.30;26.40;;;;;;;;;;5052698;28;20211;-75
2023/09/13 04:06:57;;;;;;;30.73;26.63;;;;;;;;;;5039053;28;20179;-75
2023/09/13 04:09:23;;;;;;;33.10;26.40;;;;;;;;;;5055919;28;20238;-75
2023/09/13 04:11:50;;;;;;;32.50;26.10;;;;;;;;;;5039313;28;20227;-75
2023/09/13 04:14:16;;;;;;;29.90;25.43;;;;;;;;;;5056098;28;20187;-75
2023/09/13 04:16:42;;;;;;;37.33;28.53;;;;;;;;;;5039417;28;20274;-78
2023/09/13 04:19:08;;;;;;;39.70;30.40;;;;;;;;;;5038735;28;20261;-78
2023/09/13 04:21:34;;;;;;;44.57;33.30;;;;;;;;;;5056130;28;20175;-75
2023/09/13 04:24:01;;;;;;;40.83;32.20;;;;;;;;;;5055716;28;20175;-75
2023/09/13 04:26:27;;;;;;;37.87;30.20;;;;;;;;;;5039550;28;20187;-75
2023/09/13 04:28:53;;;;;;;37.97;31.07;;;;;;;;;;5039621;28;20186;-75
2023/09/13 04:31:19;;;;;;;47.00;35.50;;;;;;;;;;5073803;28;20187;-75
2023/09/13 04:33:52;;;;;;;49.50;38.70;;;;;;;;;;5056063;28;20183;-76
2023/09/13 04:36:18;;;;;;;60.40;42.83;;;;;;;;;;5056006;28;20183;-76
2023/09/13 04:38:46;;;;;;;24.63;20.97;;;;;;;;;;5055974;28;20210;-79
2023/09/13 04:41:15;;;;;;;72.87;48.43;;;;;;;;;;5073725;28;20229;-79
2023/09/13 04:43:41;;;;;;;67.43;47.57;;;;;;;;;;5055951;28;20179;-77
2023/09/13 04:46:07;;;;;;;75.87;48.90;;;;;;;;;;5038478;28;20206;-76
2023/09/13 04:48:34;;;;;;;74.87;51.50;;;;;;;;;;5054698;28;20225;-77
2023/09/13 04:51:00;;;;;;;79.43;52.30;;;;;;;;;;5038243;28;20220;-77
2023/09/13 04:53:26;;;;;;;76.10;53.00;;;;;;;;;;5073596;28;20175;-78
2023/09/13 04:55:52;;;;;;;85.47;55.60;;;;;;;;;;5053235;28;20186;-78
2023/09/13 04:58:18;;;;;;;76.80;52.37;;;;;;;;;;5055794;28;20215;-79
2023/09/13 05:00:44;;;;;;;77.57;53.27;;;;;;;;;;5055243;28;20191;-78
2023/09/13 05:03:11;;;;;;;80.43;53.70;;;;;;;;;;5037274;28;20192;-78
2023/09/13 05:05:39;;;;;;;80.87;55.00;;;;;;;;;;5055101;28;20183;-78
2023/09/13 05:08:05;;;;;;;84.63;54.37;;;;;;;;;;5046292;28;20180;-76
2023/09/13 05:10:32;;;;;;;79.33;51.70;;;;;;;;;;5053164;28;20230;-76
2023/09/13 05:12:59;;;;;;;75.80;51.30;;;;;;;;;;5035096;28;20184;-76
2023/09/13 05:15:25;;;;;;;74.03;50.77;;;;;;;;;;5033431;28;20184;-76
2023/09/13 05:17:51;;;;;;;79.10;51.90;;;;;;;;;;5035363;28;20235;-78
2023/09/13 05:20:17;;;;;;;74.87;52.27;;;;;;;;;;5019137;28;20188;-78
2023/09/13 05:22:43;;;;;;;74.93;52.03;;;;;;;;;;5035801;28;20198;-79
2023/09/13 05:25:09;;;;;;;74.40;52.13;;;;;;;;;;5053200;28;20168;-78
2023/09/13 05:27:35;;;;;;;80.17;52.63;;;;;;;;;;5019073;28;20184;-78
2023/09/13 05:30:01;;;;;;;70.37;50.73;;;;;;;;;;5019019;28;20184;-79
2023/09/13 05:32:27;;;;;;;68.13;50.47;;;;;;;;;;5022342;28;20261;-78
2023/09/13 05:34:53;;;;;;;70.20;51.67;;;;;;;;;;5039232;28;20176;-79
2023/09/13 05:37:19;;;;;;;74.03;50.67;;;;;;;;;;5022356;28;20207;-78
2023/09/13 05:39:46;;;;;;;73.90;50.10;;;;;;;;;;5022462;28;20176;-78
2023/09/13 05:42:12;;;;;;;67.27;48.87;;;;;;;;;;5038754;28;20194;-78
2023/09/13 05:44:38;;;;;;;71.80;50.87;;;;;;;;;;5022368;28;20185;-77
2023/09/13 05:47:04;;;;;;;68.97;49.20;;;;;;;;;;5038876;28;20181;-77
2023/09/13 05:49:30;;;;;;;72.90;50.33;;;;;;;;;;5022068;28;20180;-77
2023/09/13 05:51:56;;;;;;;72.80;51.23;;;;;;;;;;5056395;28;20195;-77
2023/09/13 05:54:23;;;;;;;70.63;49.83;;;;;;;;;;5021886;28;20215;-77
2023/09/13 05:56:54;;;;;;;69.53;48.17;;;;;;;;;;5022071;28;20279;-77
2023/09/13 05:59:20;;;;;;;66.40;48.20;;;;;;;;;;5038255;28;20242;-79
2023/09/13 06:01:46;;;;;;;70.77;49.47;;;;;;;;;;5038510;28;20200;-77
2023/09/13 06:04:12;;;;;;;65.57;47.23;;;;;;;;;;5021909;28;20206;-77
2023/09/13 06:06:38;;;;;;;67.37;47.67;;;;;;;;;;5022034;28;20186;-77
2023/09/13 06:09:04;;;;;;;66.83;48.13;;;;;;;;;;5021991;28;20191;-77
2023/09/13 06:11:31;;;;;;;61.50;44.93;;;;;;;;;;5032881;28;20229;-77
2023/09/13 06:13:57;;;;;;;62.90;46.17;;;;;;;;;;5018777;28;20197;-77
2023/09/13 06:16:24;;;;;;;64.00;45.43;;;;;;;;;;5021895;28;20179;-77
2023/09/13 06:18:50;;;;;;;64.70;44.60;;;;;;;;;;5038258;28;20207;-77
2023/09/13 06:21:16;;;;;;;55.00;42.13;;;;;;;;;;5037877;28;20172;-77
2023/09/13 06:23:42;;;;;;;60.77;44.83;;;;;;;;;;5038064;28;20263;-77
2023/09/13 06:26:08;;;;;;;66.10;46.83;;;;;;;;;;5021588;28;20179;-77
2023/09/13 06:28:35;;;;;;;64.53;45.77;;;;;;;;;;5055547;28;20172;-77
2023/09/13 06:31:01;;;;;;;62.83;44.90;;;;;;;;;;5021387;28;20241;-77
2023/09/13 06:33:27;;;;;;;58.37;44.60;;;;;;;;;;5021517;28;20180;-76
2023/09/13 06:35:56;;;;;;;63.47;44.97;;;;;;;;;;5054690;28;20188;-78
2023/09/13 06:38:22;;;;;;;59.23;44.43;;;;;;;;;;5019582;28;20204;-78
2023/09/13 06:40:50;;;;;;;63.90;45.50;;;;;;;;;;5022406;28;20176;-78
2023/09/13 06:43:18;;;;;;;56.67;42.90;;;;;;;;;;5053679;28;20176;-78
2023/09/13 06:45:44;;;;;;;58.40;43.70;;;;;;;;;;5037624;28;20234;-79
2023/09/13 06:48:10;;;;;;;63.33;44.40;;;;;;;;;;5055300;28;20191;-78
2023/09/13 06:50:36;;;;;;;56.80;42.87;;;;;;;;;;5054122;28;20180;-78
2023/09/13 06:53:02;;;;;;;58.37;42.47;;;;;;;;;;5048987;28;20188;-78
2023/09/13 06:55:31;;;;;;;50.53;40.63;;;;;;;;;;5037093;28;20246;-78
2023/09/13 06:57:57;;;;;;;54.73;40.90;;;;;;;;;;5036993;28;20199;-78
2023/09/13 07:00:23;;;;;;;52.87;39.33;;;;;;;;;;5036420;28;20176;-78
2023/09/13 07:02:49;;;;;;;50.70;39.30;;;;;;;;;;5037319;28;20219;-78
2023/09/13 07:05:15;;;;;;;51.90;38.33;;;;;;;;;;5017501;28;20177;-78
2023/09/13 07:07:41;;;;;;;14.87;10.57;;;;;;;;;;5034147;28;20200;-77
2023/09/13 07:10:07;;;;;;;7.20;3.40;;;;;;;;;;5034078;28;20181;-77
2023/09/13 07:12:33;;;;;;;4.17;2.60;;;;;;;;;;5039106;28;20215;-76
2023/09/13 07:14:59;;;;;;;2.73;1.80;;;;;;;;;;5027992;28;20188;-76
2023/09/13 07:17:25;;;;;;;2.93;1.60;;;;;;;;;;5040376;28;20214;-75
2023/09/13 07:19:51;;;;;;;3.00;1.50;;;;;;;;;;5037536;28;20176;-75
2023/09/13 07:22:17;;;;;;;1.87;1.40;;;;;;;;;;5020790;28;20184;-75
2023/09/13 07:24:43;;;;;;;2.17;1.43;;;;;;;;;;5054785;28;20172;-75
2023/09/13 07:27:10;;;;;;;1.60;1.20;;;;;;;;;;5020588;28;20226;-75
2023/09/13 07:29:36;;;;;;;3.27;1.10;;;;;;;;;;5037194;28;20227;-76
2023/09/13 07:32:02;;;;;;;1.17;1.03;;;;;;;;;;5035690;28;20175;-76
2023/09/13 07:34:29;;;;;;;2.27;1.23;;;;;;;;;;5048633;28;20188;-75
2023/09/13 07:36:55;;;;;;;2.40;1.10;;;;;;;;;;5016204;28;20189;-75
2023/09/13 07:39:21;;;;;;;3.80;1.37;;;;;;;;;;5016777;28;20266;-76
2023/09/13 07:41:47;;;;;;;3.42;1.30;;;;;;;;;;5016357;28;20447;-77
2023/09/13 07:44:13;;;;;;;2.60;1.30;;;;;;;;;;5015658;28;20417;-77
2023/09/13 07:46:39;;;;;;;2.20;1.30;;;;;;;;;;5031959;28;20467;-78
2023/09/13 07:49:05;;;;;;;3.33;1.40;;;;;;;;;;5016006;28;20479;-79
2023/09/13 07:51:31;;;;;;;2.60;1.30;;;;;;;;;;5014397;28;20418;-79
2023/09/13 07:54:04;;;;;;;2.37;1.30;;;;;;;;;;5014882;28;20494;-78
2023/09/13 07:56:32;;;;;;;2.13;1.30;;;;;;;;;;5031957;28;20405;-78
2023/09/13 07:58:58;;;;;;;3.67;1.33;;;;;;;;;;5030846;28;20469;-78
2023/09/13 08:01:24;;;;;;;2.33;1.40;;;;;;;;;;5031775;28;20416;-78
2023/09/13 08:03:50;;;;;;;1.92;1.20;;;;;;;;;;5033063;28;20405;-78
2023/09/13 08:06:16;;;;;;;1.98;1.30;;;;;;;;;;5016656;28;20428;-78
2023/09/13 08:08:42;;;;;;;1.95;1.38;;;;;;;;;;5018980;28;20419;-78
2023/09/13 08:11:08;;;;;;;1.90;1.40;;;;;;;;;;5018522;28;20427;-78
2023/09/13 08:13:34;;;;;;;2.47;1.50;;;;;;;;;;5035577;28;20486;-76
2023/09/13 08:16:00;;;;;;;2.63;1.40;;;;;;;;;;5018780;28;20407;-76
2023/09/13 08:18:26;;;;;;;2.90;1.33;;;;;;;;;;5019640;28;20211;-77
2023/09/13 08:20:52;;;;;;;3.17;1.13;;;;;;;;;;5035945;28;20186;-76
2023/09/13 08:23:18;;;;;;;2.90;1.20;;;;;;;;;;5033026;28;20188;-77
2023/09/13 08:25:45;;;;;;;4.03;1.13;;;;;;;;;;5016884;28;20191;-76
2023/09/13 08:28:11;;;;;;;1.47;1.00;;;;;;;;;;5016329;28;20200;-77
2023/09/13 08:30:37;;;;;;;4.43;1.10;;;;;;;;;;5033628;28;20183;-79
2023/09/13 08:33:03;;;;;;;1.17;1.07;;;;;;;;;;5016005;28;20191;-79
2023/09/13 08:35:29;;;;;;;3.07;1.30;;;;;;;;;;5016146;28;20180;-80
2023/09/13 08:37:55;;;;;;;2.20;1.10;;;;;;;;;;5033107;28;20215;-80
2023/09/13 08:40:24;;;;;;;2.22;1.25;;;;;;;;;;5015979;28;20425;-80
2023/09/13 08:42:50;;;;;;;1.33;1.10;;;;;;;;;;5018919;28;20184;-79
2023/09/13 08:45:16;;;;;;;1.50;1.00;;;;;;;;;;5035641;28;20180;-79
2023/09/13 08:47:44;;;;;;;2.97;1.47;;;;;;;;;;5035829;28;20180;-79
2023/09/13 08:50:10;;;;;;;3.63;1.30;;;;;;;;;;5073507;28;20167;-80
2023/09/13 08:52:37;;;;;;;2.83;1.40;;;;;;;;;;5055634;28;20171;-79
2023/09/13 08:55:04;;;;;;;2.30;1.53;;;;;;;;;;5055832;28;20179;-79
2023/09/13 08:57:30;;;;;;;2.83;1.43;;;;;;;;;;5055614;28;20194;-80
2023/09/13 08:59:56;;;;;;;3.78;1.40;;;;;;;;;;5053913;28;20411;-80
2023/09/13 09:02:24;;;;;;;2.53;1.45;;;;;;;;;;5038696;28;20414;-79
2023/09/13 09:04:51;;;;;;;3.13;1.50;;;;;;;;;;5054683;28;20399;-78
2023/09/13 09:07:21;;;;;;;3.57;1.43;;;;;;;;;;5059676;28;20198;-79
2023/09/13 09:09:48;;;;;;;2.00;1.50;;;;;;;;;;5077294;28;20160;-77
2023/09/13 09:12:16;;;;;;;2.43;1.23;;;;;;;;;;5059495;28;20219;-77
2023/09/13 09:14:43;;;;;;;2.13;1.40;;;;;;;;;;5059346;28;20324;-80
2023/09/13 09:17:10;;;;;;;2.63;1.40;;;;;;;;;;5060050;28;20171;-78
2023/09/13 09:19:36;;;;;;;2.30;1.27;;;;;;;;;;5076961;28;20182;-79
2023/09/13 09:22:02;;;;;;;2.03;1.30;;;;;;;;;;5042848;28;20175;-78
2023/09/13 09:24:29;;;;;;;2.13;1.40;;;;;;;;;;5059375;28;20179;-78
2023/09/13 09:26:56;;;;;;;2.80;1.30;;;;;;;;;;5042733;28;20183;-78
2023/09/13 09:29:32;;;;;;;2.08;1.20;;;;;;;;;;5058929;28;20191;-78
2023/09/13 09:31:58;;;;;;;2.55;1.40;;;;;;;;;;5076925;28;20179;-78
2023/09/13 09:34:30;;;;;;;2.63;1.23;;;;;;;;;;5042571;28;20278;-76
2023/09/13 09:37:02;;;;;;;2.38;1.40;;;;;;;;;;5059110;28;20175;-78
2023/09/13 09:39:28;;;;;;;1.52;1.10;;;;;;;;;;5058766;28;20203;-78
2023/09/13 09:41:58;;;;;;;1.98;1.30;;;;;;;;;;5059078;28;20221;-78
2023/09/13 09:44:27;;;;;;;1.83;1.40;;;;;;;;;;5058924;28;20178;-78
2023/09/13 09:46:53;;;;;;;2.80;1.25;;;;;;;;;;5076587;28;20167;-79
2023/09/13 09:49:19;;;;;;;2.25;1.20;;;;;;;;;;5076497;28;20203;-78
2023/09/13 09:51:45;;;;;;;2.17;1.10;;;;;;;;;;5058505;28;20201;-78
2023/09/13 09:54:11;;;;;;;1.85;1.25;;;;;;;;;;5076607;28;20179;-79
2023/09/13 09:56:38;;;;;;;3.05;1.45;;;;;;;;;;5040211;28;20218;-79
2023/09/13 09:59:04;;;;;;;3.72;1.30;;;;;;;;;;5058583;28;20207;-79
2023/09/13 10:01:30;;;;;;;1.75;1.30;;;;;;;;;;5041874;28;20255;-79
2023/09/13 10:04:07;;;;;;;2.75;1.30;;;;;;;;;;5041958;28;20273;-79
2023/09/13 10:06:33;;;;;;;1.85;1.30;;;;;;;;;;5058504;28;20236;-79
2023/09/13 10:09:00;;;;;;;2.28;1.40;;;;;;;;;;5041838;28;20325;-79
2023/09/13 10:11:26;;;;;;;2.83;1.48;;;;;;;;;;5049827;28;20285;-76
2023/09/13 10:13:52;;;;;;;2.00;1.33;;;;;;;;;;5021887;28;20270;-77
2023/09/13 10:16:19;;;;;;;3.45;1.73;;;;;;;;;;5038065;28;20211;-76
2023/09/13 10:18:45;;;;;;;4.53;1.77;;;;;;;;;;5036503;28;20218;-76
2023/09/13 10:21:14;;;;;;;3.60;1.70;;;;;;;;;;5055679;28;20255;-76
2023/09/13 10:23:40;;;;;;;4.03;1.77;;;;;;;;;;5037986;28;20246;-76
2023/09/13 10:26:10;;;;;;;4.63;2.03;;;;;;;;;;5038255;28;20180;-76
2023/09/13 10:28:39;;;;;;;4.05;1.90;;;;;;;;;;5037817;28;20262;-78
2023/09/13 10:31:08;;;;;;;3.70;1.90;;;;;;;;;;5038238;28;20180;-79
2023/09/13 10:33:36;;;;;;;3.30;2.00;;;;;;;;;;5037154;28;20421;-77
2023/09/13 10:36:03;;;;;;;3.15;2.10;;;;;;;;;;5037878;28;20227;-78
2023/09/13 10:38:44;;;;;;;3.67;2.00;;;;;;;;;;5038030;28;20302;-78
2023/09/13 10:41:13;;;;;;;3.72;2.20;;;;;;;;;;5055638;28;20224;-80
2023/09/13 10:43:39;;;;;;;4.93;2.60;;;;;;;;;;5037038;28;20400;-81
2023/09/13 10:46:08;;;;;;;4.60;2.45;;;;;;;;;;5037754;28;20508;-81
2023/09/13 10:48:35;;;;;;;4.88;2.55;;;;;;;;;;5037516;28;20408;-80
2023/09/13 10:51:01;;;;;;;4.03;2.20;;;;;;;;;;5055377;28;20072;-81
2023/09/13 10:53:27;;;;;;;7.25;2.60;;;;;;;;;;5055491;28;20191;-80
2023/09/13 10:55:54;;;;;;;4.05;2.50;;;;;;;;;;5036841;28;20444;-80
2023/09/13 10:58:21;;;;;;;5.43;2.60;;;;;;;;;;5055259;28;20200;-80
2023/09/13 11:00:53;;;;;;;4.32;2.55;;;;;;;;;;5021290;28;20180;-78
2023/09/13 11:03:19;;;;;;;4.40;2.30;;;;;;;;;;5055203;28;20522;-78
2023/09/13 11:05:50;;;;;;;3.22;2.25;;;;;;;;;;5020613;28;20407;-78
2023/09/13 11:08:30;;;;;;;3.65;2.30;;;;;;;;;;5037448;28;20176;-78
2023/09/13 11:10:56;;;;;;;4.72;2.53;;;;;;;;;;5058157;28;20414;-75
2023/09/13 11:13:30;;;;;;;5.25;2.20;;;;;;;;;;5056833;28;20226;-76
2023/09/13 11:16:01;;;;;;;5.13;2.50;;;;;;;;;;5056246;28;20413;-75
2023/09/13 11:18:27;;;;;;;5.28;2.70;;;;;;;;;;5057235;28;20257;-77
2023/09/13 11:20:53;;;;;;;5.57;2.67;;;;;;;;;;5074447;28;20406;-77
2023/09/13 11:23:19;;;;;;;6.43;2.58;;;;;;;;;;5056803;28;20406;-76
2023/09/13 11:25:53;;;;;;;7.70;2.47;;;;;;;;;;5074981;28;20174;-75
2023/09/13 11:28:37;;;;;;;7.63;2.88;;;;;;;;;;5056046;28;20418;-75
2023/09/13 11:31:04;;;;;;;6.85;2.78;;;;;;;;;;5073940;28;20414;-75
2023/09/13 11:33:30;;;;;;;7.75;2.85;;;;;;;;;;5056125;28;20457;-74
2023/09/13 11:35:57;;;;;;;6.63;2.92;;;;;;;;;;5073785;28;20441;-74
2023/09/13 11:38:24;;;;;;;6.80;2.90;;;;;;;;;;5073694;28;20453;-74
2023/09/13 11:40:50;;;;;;;7.20;2.92;;;;;;;;;;5056048;28;20411;-74
2023/09/13 11:43:21;;;;;;;4.10;2.40;;;;;;;;;;5056954;28;20407;-74
2023/09/13 11:45:48;;;;;;;6.97;2.53;;;;;;;;;;5055836;28;20410;-74
2023/09/13 11:48:19;;;;;;;6.50;2.43;;;;;;;;;;5073512;28;20410;-76
2023/09/13 11:50:48;;;;;;;5.60;2.40;;;;;;;;;;5056041;28;20410;-78
2023/09/13 11:53:18;;;;;;;6.55;2.33;;;;;;;;;;5056247;28;20432;-78
2023/09/13 11:55:44;;;;;;;4.85;2.30;;;;;;;;;;5056571;28;20470;-78
2023/09/13 11:58:19;;;;;;;3.97;2.13;;;;;;;;;;5039617;28;20442;-78
2023/09/13 12:00:45;;;;;;;4.97;2.20;;;;;;;;;;5073601;28;20469;-78
2023/09/13 12:03:17;;;;;;;4.22;2.10;;;;;;;;;;5040014;28;20406;-78
2023/09/13 12:05:43;;;;;;;3.88;1.92;;;;;;;;;;5074438;28;20245;-78
2023/09/13 12:08:27;;;;;;;5.07;2.30;;;;;;;;;;5039289;28;20406;-78
2023/09/13 12:10:53;;;;;;;3.60;2.10;;;;;;;;;;5055352;28;20442;-78
2023/09/13 12:13:19;;;;;;;3.60;2.00;;;;;;;;;;5039105;28;20490;-78
2023/09/13 12:15:58;;;;;;;3.45;1.70;;;;;;;;;;5039944;28;20418;-78
2023/09/13 12:18:24;;;;;;;4.25;1.88;;;;;;;;;;5055062;28;20430;-78
2023/09/13 12:20:50;;;;;;;4.80;1.87;;;;;;;;;;5055527;28;20402;-78
2023/09/13 12:23:17;;;;;;;2.55;1.63;;;;;;;;;;5056195;28;20517;-80
2023/09/13 12:25:43;;;;;;;3.78;1.83;;;;;;;;;;5056647;28;20167;-78
2023/09/13 12:28:09;;;;;;;4.35;2.05;;;;;;;;;;5039150;28;20411;-78
2023/09/13 12:30:35;;;;;;;3.60;1.90;;;;;;;;;;5039055;28;20413;-78
2023/09/13 12:33:03;;;;;;;4.03;1.88;;;;;;;;;;5055866;28;20487;-78
2023/09/13 12:35:30;;;;;;;3.33;1.70;;;;;;;;;;5073773;28;20406;-78
2023/09/13 12:38:00;;;;;;;4.60;1.70;;;;;;;;;;5055989;28;20203;-76
2023/09/13 12:40:27;;;;;;;3.80;1.90;;;;;;;;;;5056416;28;20407;-74
2023/09/13 12:42:56;;;;;;;5.22;2.00;;;;;;;;;;5059638;28;20532;-74
2023/09/13 12:45:22;;;;;;;5.50;2.13;;;;;;;;;;5060139;28;20171;-75
2023/09/13 12:47:49;;;;;;;2.85;1.73;;;;;;;;;;5043521;28;20252;-74
2023/09/13 12:50:15;;;;;;;4.35;2.30;;;;;;;;;;5060514;28;20177;-74
2023/09/13 12:52:42;;;;;;;5.40;2.00;;;;;;;;;;5077921;28;20202;-74
2023/09/13 12:55:08;;;;;;;3.95;2.03;;;;;;;;;;5060069;28;20175;-74
2023/09/13 12:57:34;;;;;;;5.43;2.40;;;;;;;;;;5077605;28;20203;-75
2023/09/13 13:00:00;;;;;;;6.20;2.25;;;;;;;;;;5043429;28;20206;-75
2023/09/13 13:02:27;;;;;;;5.35;2.08;;;;;;;;;;5043361;28;20184;-75
2023/09/13 13:04:54;;;;;;;5.80;2.50;;;;;;;;;;5058808;28;20410;-75
2023/09/13 13:07:33;;;;;;;5.18;2.22;;;;;;;;;;5058870;28;20475;-75
2023/09/13 13:10:05;;;;;;;5.57;2.20;;;;;;;;;;5059498;28;20489;-75
2023/09/13 13:12:31;;;;;;;4.88;2.10;;;;;;;;;;5042412;28;20580;-75
2023/09/13 13:14:59;;;;;;;4.50;1.92;;;;;;;;;;5055608;28;20180;-74
2023/09/13 13:17:33;;;;;;;3.50;1.52;;;;;;;;;;5039266;28;20176;-74
2023/09/13 13:20:04;;;;;;;4.60;1.70;;;;;;;;;;5039491;28;20172;-74
2023/09/13 13:22:31;;;;;;;2.05;1.30;;;;;;;;;;5039035;28;20452;-74
2023/09/13 13:24:57;;;;;;;3.42;1.60;;;;;;;;;;5038662;28;20445;-79
2023/09/13 13:27:24;;;;;;;3.05;1.60;;;;;;;;;;5039455;28;20490;-79
2023/09/13 13:29:50;;;;;;;4.38;1.73;;;;;;;;;;5022284;28;20407;-77
2023/09/13 13:32:16;;;;;;;2.95;1.50;;;;;;;;;;5040305;28;20426;-77
2023/09/13 13:34:43;;;;;;;2.47;1.60;;;;;;;;;;5059111;28;20399;-77
2023/09/13 13:37:09;;;;;;;3.43;1.53;;;;;;;;;;5076555;28;20413;-77
2023/09/13 13:39:35;;;;;;;3.30;1.50;;;;;;;;;;5058281;28;20422;-77
2023/09/13 13:42:02;;;;;;;2.63;1.60;;;;;;;;;;5058436;28;20394;-77
2023/09/13 13:44:28;;;;;;;3.70;1.60;;;;;;;;;;5058077;28;20398;-77
2023/09/13 13:46:54;;;;;;;2.33;1.60;;;;;;;;;;5058950;28;20406;-77
2023/09/13 13:49:20;;;;;;;3.50;1.60;;;;;;;;;;5042129;28;20410;-77
2023/09/13 13:51:49;;;;;;;1.73;1.23;;;;;;;;;;5058259;28;20414;-77
2023/09/13 13:54:15;;;;;;;2.38;1.33;;;;;;;;;;5076214;28;20410;-77
2023/09/13 13:56:42;;;;;;;2.83;1.77;;;;;;;;;;5041620;28;20422;-77
2023/09/13 13:59:12;;;;;;;3.45;1.58;;;;;;;;;;5041511;28;20430;-77
2023/09/13 14:01:38;;;;;;;2.43;1.53;;;;;;;;;;5041934;28;20417;-77
2023/09/13 14:04:04;;;;;;;2.70;1.58;;;;;;;;;;5058009;28;20444;-77
2023/09/13 14:06:30;;;;;;;2.70;1.40;;;;;;;;;;5075809;28;20391;-77
2023/09/13 14:08:56;;;;;;;3.20;1.98;;;;;;;;;;5058832;28;20179;-77
2023/09/13 14:11:22;;;;;;;2.15;1.50;;;;;;;;;;5058000;28;20414;-75
2023/09/13 14:13:48;;;;;;;3.40;1.63;;;;;;;;;;5041300;28;20434;-75
2023/09/13 14:16:14;;;;;;;2.80;1.60;;;;;;;;;;5058689;28;20457;-75
2023/09/13 14:18:40;;;;;;;2.08;1.30;;;;;;;;;;5058607;28;20207;-75
2023/09/13 14:21:06;;;;;;;2.85;1.50;;;;;;;;;;5042487;28;20177;-75
2023/09/13 14:23:32;;;;;;;2.25;1.60;;;;;;;;;;5042023;28;20225;-75
2023/09/13 14:25:58;;;;;;;3.78;1.88;;;;;;;;;;5074837;23;20265;-77
2023/09/13 14:28:24;;;;;;;3.47;1.83;;;;;;;;;;5078195;28;20186;-77
2023/09/13 14:30:53;;;;;;;3.78;1.90;;;;;;;;;;5061257;28;20417;-77
2023/09/13 14:33:20;;;;;;;3.50;1.83;;;;;;;;;;5060819;28;20424;-77